Time;durP1;ratioP1;P1;durP2;ratioP2;P2;SDS_P1;SDS_P2;PMS_P1;PMS_P2;Temp;Humidity;BMP_temperature;BMP_pressure;BME280_temperature;BME280_humidity;BME280_pressure;Samples;Min_cycle;Max_cycle;Signal;HPM_P1;HPM_P2
2023/12/11 00:01:20;;;;;;;29.83;2.90;;;11.10;99.90;;;;;;5436147;23;21238;-85
2023/12/11 00:03:46;;;;;;;30.83;2.73;;;11.10;99.90;;;;;;5106169;22;20487;-85
2023/12/11 00:06:11;;;;;;;25.90;2.57;;;11.00;99.90;;;;;;5053947;28;20200;-84
2023/12/11 00:08:37;;;;;;;27.97;2.30;;;11.00;99.90;;;;;;5054043;28;20707;-85
2023/12/11 00:11:03;;;;;;;25.17;2.37;;;11.00;99.90;;;;;;5054747;28;20211;-85
2023/12/11 00:13:29;;;;;;;29.75;2.97;;;11.00;99.90;;;;;;5054006;28;20161;-85
2023/12/11 00:15:55;;;;;;;32.50;3.27;;;11.00;99.90;;;;;;5053567;28;20542;-84
2023/12/11 00:18:20;;;;;;;30.33;3.07;;;10.90;99.90;;;;;;5054210;28;20404;-85
2023/12/11 00:20:46;;;;;;;24.23;2.90;;;11.00;99.90;;;;;;5054184;28;20622;-84
2023/12/11 00:23:15;;;;;;;27.43;2.80;;;11.00;98.90;;;;;;5054171;28;20169;-84
2023/12/11 00:25:47;;;;;;;29.20;3.05;;;11.00;98.40;;;;;;5036184;28;20196;-84
2023/12/11 00:28:13;;;;;;;37.97;3.25;;;11.00;98.30;;;;;;5053638;28;20165;-83
2023/12/11 00:30:39;;;;;;;27.47;2.40;;;11.00;97.60;;;;;;5053722;28;20173;-84
2023/12/11 00:33:05;;;;;;;28.40;2.67;;;11.00;95.50;;;;;;5054085;28;20430;-84
2023/12/11 00:35:30;;;;;;;38.90;3.37;;;11.10;93.50;;;;;;5053664;28;20189;-84
2023/12/11 00:37:56;;;;;;;30.00;3.03;;;11.00;91.20;;;;;;5053411;28;20192;-85
2023/12/11 00:40:22;;;;;;;24.63;2.27;;;11.10;90.80;;;;;;5053571;28;20244;-85
2023/12/11 00:42:48;;;;;;;29.35;3.13;;;11.10;90.20;;;;;;5053666;28;20173;-85
2023/12/11 00:45:13;;;;;;;23.43;2.63;;;11.10;89.20;;;;;;5053942;28;20196;-85
2023/12/11 00:47:39;;;;;;;25.67;2.80;;;11.10;87.90;;;;;;5053805;28;20184;-85
2023/12/11 00:50:05;;;;;;;31.27;3.23;;;11.10;86.40;;;;;;5053914;28;20174;-85
2023/12/11 00:52:31;;;;;;;24.40;2.40;;;11.10;83.20;;;;;;5053623;28;20400;-85
2023/12/11 00:54:57;;;;;;;25.13;2.73;;;11.10;85.80;;;;;;5053497;28;20665;-84
2023/12/11 00:57:23;;;;;;;29.73;3.13;;;11.10;82.10;;;;;;5053597;28;20573;-84
2023/12/11 00:59:48;;;;;;;28.60;2.90;;;11.00;82.40;;;;;;5053753;28;20165;-83
2023/12/11 01:02:16;;;;;;;26.47;3.00;;;11.00;82.30;;;;;;5053549;28;20185;-84
2023/12/11 01:04:42;;;;;;;24.15;2.28;;;11.00;80.30;;;;;;5053523;28;20447;-85
2023/12/11 01:07:08;;;;;;;31.37;3.60;;;11.10;80.70;;;;;;5053661;28;20236;-84
2023/12/11 01:09:34;;;;;;;26.50;3.20;;;11.10;81.50;;;;;;5053287;28;20407;-83
2023/12/11 01:12:00;;;;;;;28.90;2.87;;;11.10;82.80;;;;;;5053240;28;20172;-85
2023/12/11 01:14:25;;;;;;;30.40;3.30;;;11.10;83.80;;;;;;5053397;28;20197;-85
2023/12/11 01:16:52;;;;;;;21.73;1.90;;;11.00;83.50;;;;;;5053114;28;20253;-85
2023/12/11 01:19:18;;;;;;;33.72;2.72;;;11.00;84.80;;;;;;5053261;28;20158;-85
2023/12/11 01:21:45;;;;;;;23.57;2.03;;;11.00;83.70;;;;;;5035507;28;20165;-84
2023/12/11 01:24:11;;;;;;;27.15;3.15;;;10.90;88.30;;;;;;5052910;28;20216;-84
2023/12/11 01:26:38;;;;;;;23.45;2.55;;;10.90;88.20;;;;;;5056337;28;20211;-85
2023/12/11 01:29:04;;;;;;;30.50;3.15;;;10.90;87.10;;;;;;5057474;28;20157;-84
2023/12/11 01:31:30;;;;;;;29.27;2.57;;;11.00;87.80;;;;;;5056766;28;20172;-84
2023/12/11 01:33:55;;;;;;;37.83;3.67;;;11.00;86.90;;;;;;5056888;28;20423;-83
2023/12/11 01:36:21;;;;;;;33.33;2.63;;;11.00;90.10;;;;;;5057200;28;20232;-84
2023/12/11 01:38:50;;;;;;;24.00;2.40;;;11.00;85.30;;;;;;5056713;28;20173;-84
2023/12/11 01:41:16;;;;;;;36.72;3.13;;;11.00;84.00;;;;;;5057204;28;20232;-84
2023/12/11 01:43:53;;;;;;;31.00;2.72;;;11.00;83.10;;;;;;5056716;28;20176;-85
2023/12/11 01:46:20;;;;;;;27.77;2.60;;;11.00;81.30;;;;;;5056959;28;20169;-84
2023/12/11 01:48:47;;;;;;;22.73;2.25;;;10.90;82.20;;;;;;5056480;28;20176;-85
2023/12/11 01:51:14;;;;;;;27.33;3.10;;;10.90;82.90;;;;;;5056567;28;20174;-85
2023/12/11 01:53:40;;;;;;;35.55;4.00;;;10.90;80.10;;;;;;5038973;28;20283;-84
2023/12/11 01:56:08;;;;;;;32.10;3.13;;;10.90;83.60;;;;;;5056849;28;20204;-85
2023/12/11 01:58:34;;;;;;;29.98;3.10;;;11.00;79.90;;;;;;5056642;28;20294;-85
2023/12/11 02:01:00;;;;;;;27.42;3.45;;;11.00;78.90;;;;;;5038224;28;20524;-84
2023/12/11 02:03:26;;;;;;;25.80;2.50;;;11.00;77.20;;;;;;5056433;28;20187;-84
2023/12/11 02:05:52;;;;;;;24.37;2.90;;;11.10;74.60;;;;;;5056572;28;20264;-84
2023/12/11 02:08:17;;;;;;;35.07;3.33;;;11.10;76.10;;;;;;5056718;28;20407;-83
2023/12/11 02:10:44;;;;;;;27.57;3.07;;;11.00;75.50;;;;;;5056598;28;20956;-84
2023/12/11 02:13:13;;;;;;;26.83;2.78;;;11.10;72.70;;;;;;5056800;28;20157;-85
2023/12/11 02:15:46;;;;;;;24.85;2.30;;;11.00;74.90;;;;;;5038109;28;20197;-84
2023/12/11 02:18:14;;;;;;;26.90;2.88;;;11.10;75.90;;;;;;5055688;28;20196;-84
2023/12/11 02:20:41;;;;;;;34.05;4.53;;;11.10;74.10;;;;;;5056266;28;20165;-84
2023/12/11 02:23:29;;;;;;;29.33;3.20;;;11.10;73.40;;;;;;5055642;28;20190;-84
2023/12/11 02:26:07;;;;;;;36.45;3.45;;;11.10;67.90;;;;;;5024564;28;20620;-84
2023/12/11 02:28:33;;;;;;;28.48;2.83;;;11.20;64.90;;;;;;5055808;28;20169;-84
2023/12/11 02:30:59;;;;;;;31.10;3.50;;;11.20;61.40;;;;;;5056178;28;20169;-82
2023/12/11 02:35:56;;;;;;;25.90;3.38;;;11.10;57.30;;;;;;5194510;22;20698;-81
2023/12/11 02:38:22;;;;;;;26.27;2.70;;;11.20;55.30;;;;;;5055164;28;20172;-83
2023/12/11 02:40:47;;;;;;;29.03;3.50;;;11.10;51.40;;;;;;5055906;28;20161;-83
2023/12/11 02:43:13;;;;;;;21.70;2.30;;;11.10;38.20;;;;;;5055247;28;20169;-82
2023/12/11 02:45:39;;;;;;;27.77;4.47;;;11.20;39.10;;;;;;5037601;28;20197;-83
2023/12/11 02:48:05;;;;;;;24.17;3.17;;;11.20;34.50;;;;;;5055544;28;20515;-83
2023/12/11 02:50:31;;;;;;;35.15;3.90;;;11.20;28.70;;;;;;5055537;28;20153;-83
2023/12/11 02:52:58;;;;;;;25.35;2.72;;;11.10;25.80;;;;;;5055095;28;20168;-83
2023/12/11 02:55:24;;;;;;;27.48;4.00;;;11.10;20.90;;;;;;5055072;28;20236;-83
2023/12/11 02:57:51;;;;;;;29.20;3.13;;;11.10;21.90;;;;;;5055157;28;20643;-83
2023/12/11 03:00:17;;;;;;;27.30;3.30;;;11.00;20.20;;;;;;5055167;28;20765;-83
2023/12/11 03:02:43;;;;;;;26.50;3.07;;;11.10;14.60;;;;;;5055759;28;20169;-83
2023/12/11 03:05:08;;;;;;;28.27;2.47;;;11.10;15.50;;;;;;5037097;28;20196;-82
2023/12/11 03:07:37;;;;;;;25.60;2.73;;;11.10;8.50;;;;;;5055693;28;20415;-82
2023/12/11 03:12:36;;;;;;;26.50;3.78;;;11.00;9.50;;;;;;5404458;22;20220;-85
2023/12/11 03:15:04;;;;;;;30.90;3.93;;;11.00;13.60;;;;;;5055203;28;20196;-85
2023/12/11 03:17:29;;;;;;;29.08;3.25;;;11.00;13.50;;;;;;5054417;28;20419;-85
2023/12/11 03:19:56;;;;;;;24.30;3.17;;;11.00;11.70;;;;;;5054671;28;20570;-85
2023/12/11 03:22:25;;;;;;;29.38;2.90;;;11.00;12.00;;;;;;5055213;28;20188;-85
2023/12/11 03:24:51;;;;;;;29.65;2.72;;;11.00;12.30;;;;;;5036564;28;20196;-82
2023/12/11 03:27:20;;;;;;;20.30;2.10;;;11.00;10.20;;;;;;5054812;28;20189;-83
2023/12/11 03:29:46;;;;;;;36.42;3.75;;;11.00;7.50;;;;;;5036475;28;20243;-82
2023/12/11 03:32:12;;;;;;;30.30;3.10;;;11.00;2.80;;;;;;5054881;28;20248;-81
2023/12/11 03:34:38;;;;;;;24.00;2.73;;;11.10;1.10;;;;;;5054432;28;20629;-82
2023/12/11 03:37:04;;;;;;;27.70;3.00;;;11.10;1.00;;;;;;5054276;28;20408;-83
2023/12/11 03:39:29;;;;;;;20.63;2.03;;;11.10;1.00;;;;;;5036964;28;20554;-83
2023/12/11 03:41:56;;;;;;;27.97;3.00;;;11.10;1.00;;;;;;5054473;28;20169;-83
2023/12/11 03:44:21;;;;;;;25.13;2.90;;;11.10;1.00;;;;;;5054199;28;20214;-82
2023/12/11 03:46:47;;;;;;;28.50;3.60;;;11.10;1.00;;;;;;5054541;28;20195;-83
2023/12/11 03:49:17;;;;;;;26.13;2.63;;;11.00;1.00;;;;;;5053291;28;20412;-82
2023/12/11 03:51:46;;;;;;;25.88;2.83;;;11.00;1.00;;;;;;5054391;28;20476;-81
2023/12/11 03:54:12;;;;;;;30.42;2.83;;;11.10;1.00;;;;;;5054050;28;20183;-83
2023/12/11 03:56:41;;;;;;;23.33;2.50;;;11.10;1.00;;;;;;5036307;28;20638;-83
2023/12/11 03:59:07;;;;;;;27.10;2.47;;;11.10;1.00;;;;;;5054627;28;20431;-82
2023/12/11 04:01:33;;;;;;;23.80;2.77;;;11.00;1.00;;;;;;5053464;28;20161;-83
2023/12/11 04:04:00;;;;;;;26.27;2.77;;;11.00;1.00;;;;;;5053849;28;20500;-82
2023/12/11 04:06:26;;;;;;;23.17;2.45;;;11.00;1.00;;;;;;5053834;28;20246;-83
2023/12/11 04:08:54;;;;;;;25.17;3.20;;;11.00;1.00;;;;;;5053897;28;20678;-83
2023/12/11 04:11:20;;;;;;;24.15;2.42;;;10.90;1.00;;;;;;5054424;28;20402;-83
2023/12/11 04:13:46;;;;;;;25.93;2.40;;;11.00;1.00;;;;;;5053732;28;20275;-82
2023/12/11 04:16:12;;;;;;;23.57;2.00;;;10.90;1.00;;;;;;5053694;28;20181;-81
2023/12/11 04:18:38;;;;;;;28.30;3.35;;;11.00;1.00;;;;;;5053842;28;20176;-82
2023/12/11 04:21:04;;;;;;;27.92;2.72;;;11.00;1.00;;;;;;5054171;28;20561;-81
2023/12/11 04:23:30;;;;;;;28.08;3.17;;;11.10;1.00;;;;;;5053741;28;20169;-83
2023/12/11 04:25:59;;;;;;;21.97;2.33;;;11.10;1.00;;;;;;5036892;28;20200;-81
2023/12/11 04:28:28;;;;;;;28.55;3.05;;;11.00;1.00;;;;;;5035564;28;20165;-82
2023/12/11 04:30:55;;;;;;;26.27;2.80;;;11.10;1.00;;;;;;5053709;28;20174;-82
2023/12/11 04:33:21;;;;;;;28.23;3.15;;;11.00;1.00;;;;;;5053324;28;20165;-81
2023/12/11 04:35:47;;;;;;;22.75;2.65;;;11.00;1.00;;;;;;5035485;28;20685;-83
2023/12/11 04:38:13;;;;;;;26.27;2.33;;;11.00;1.00;;;;;;5053373;28;20216;-82
2023/12/11 04:40:39;;;;;;;24.60;2.57;;;11.00;1.00;;;;;;5053595;28;20166;-83
2023/12/11 04:43:04;;;;;;;24.55;3.17;;;11.00;1.00;;;;;;5053769;28;20423;-82
2023/12/11 04:45:31;;;;;;;23.07;2.20;;;11.10;1.00;;;;;;5053079;28;20246;-82
2023/12/11 04:47:56;;;;;;;25.95;2.97;;;11.10;1.00;;;;;;5053742;28;20200;-81
2023/12/11 04:50:22;;;;;;;22.40;2.60;;;11.20;1.00;;;;;;5054022;28;20154;-82
2023/12/11 04:52:48;;;;;;;23.10;2.63;;;11.20;1.00;;;;;;5053200;28;20927;-82
2023/12/11 04:55:14;;;;;;;31.85;2.83;;;11.10;1.00;;;;;;5053171;28;20800;-83
2023/12/11 04:57:40;;;;;;;29.40;3.00;;;11.20;1.00;;;;;;5053238;28;20170;-82
2023/12/11 05:00:07;;;;;;;28.00;2.97;;;11.20;1.00;;;;;;5036149;28;20419;-83
2023/12/11 05:02:33;;;;;;;21.27;2.17;;;11.20;1.00;;;;;;5038878;28;20184;-82
2023/12/11 05:04:58;;;;;;;22.13;2.40;;;11.20;1.00;;;;;;5056776;28;20197;-82
2023/12/11 05:07:24;;;;;;;25.73;3.10;;;11.30;1.00;;;;;;5056912;28;20503;-82
2023/12/11 05:09:50;;;;;;;27.40;2.57;;;11.30;1.00;;;;;;5056715;28;20188;-83
2023/12/11 05:12:15;;;;;;;30.00;3.13;;;11.30;1.00;;;;;;5039147;28;20170;-82
2023/12/11 05:14:41;;;;;;;28.37;3.30;;;11.20;1.00;;;;;;5056823;28;20204;-83
2023/12/11 05:17:07;;;;;;;27.50;2.70;;;11.20;7.90;;;;;;5056907;28;20654;-81
2023/12/11 05:19:33;;;;;;;32.07;3.03;;;11.20;5.50;;;;;;5057246;28;20175;-82
2023/12/11 05:21:59;;;;;;;27.80;3.33;;;11.20;4.30;;;;;;5056955;28;20395;-84
2023/12/11 05:24:30;;;;;;;32.33;2.30;;;11.20;1.00;;;;;;5056050;28;20268;-84
2023/12/11 05:26:56;;;;;;;23.67;2.47;;;11.20;3.40;;;;;;5057018;28;20252;-84
2023/12/11 05:29:21;;;;;;;28.60;3.20;;;11.20;7.70;;;;;;5056732;28;20245;-84
2023/12/11 05:31:47;;;;;;;35.73;2.97;;;11.20;12.40;;;;;;5056649;28;20193;-82
2023/12/11 05:34:13;;;;;;;24.47;2.60;;;11.20;22.80;;;;;;5057448;28;20189;-81
2023/12/11 05:36:38;;;;;;;24.70;3.00;;;11.20;25.20;;;;;;5039272;28;20173;-83
2023/12/11 05:39:05;;;;;;;24.53;2.00;;;11.20;28.40;;;;;;5056918;28;20184;-82
2023/12/11 05:41:31;;;;;;;24.73;2.95;;;11.10;37.10;;;;;;5057076;28;20165;-82
2023/12/11 05:43:58;;;;;;;34.83;3.00;;;11.10;31.50;;;;;;5056695;28;20693;-82
2023/12/11 05:46:25;;;;;;;31.17;3.30;;;11.10;28.30;;;;;;5056309;28;20598;-83
2023/12/11 05:48:50;;;;;;;34.03;3.75;;;11.10;26.00;;;;;;5056250;28;20215;-83
2023/12/11 05:51:16;;;;;;;26.33;2.57;;;11.10;24.60;;;;;;5056470;28;20177;-83
2023/12/11 05:53:42;;;;;;;24.53;2.43;;;11.10;19.90;;;;;;5056369;28;20219;-82
2023/12/11 05:56:08;;;;;;;32.63;2.20;;;11.10;20.00;;;;;;5056720;28;20176;-82
2023/12/11 05:58:34;;;;;;;28.48;2.65;;;11.10;21.40;;;;;;5056962;28;20168;-81
2023/12/11 06:00:59;;;;;;;24.00;2.30;;;11.10;33.50;;;;;;5055894;28;20212;-82
2023/12/11 06:03:25;;;;;;;22.97;1.73;;;11.00;44.90;;;;;;5056137;28;20657;-82
2023/12/11 06:05:57;;;;;;;36.67;2.57;;;11.00;56.80;;;;;;5056420;28;20200;-82
2023/12/11 06:08:24;;;;;;;22.63;2.35;;;10.90;64.40;;;;;;5038415;28;20256;-81
2023/12/11 06:10:50;;;;;;;22.33;1.90;;;10.90;67.60;;;;;;5056361;28;20764;-80
2023/12/11 06:13:16;;;;;;;27.13;2.90;;;10.80;68.80;;;;;;5055142;28;20219;-80
2023/12/11 06:15:42;;;;;;;27.77;2.93;;;10.70;70.90;;;;;;5056501;28;20204;-81
2023/12/11 06:18:07;;;;;;;27.60;2.23;;;10.70;73.40;;;;;;5056564;28;20431;-81
2023/12/11 06:20:33;;;;;;;25.97;2.37;;;10.70;74.30;;;;;;5211130;22;20526;-82
2023/12/11 06:22:59;;;;;;;29.40;2.87;;;10.70;74.80;;;;;;5362067;22;20566;-81
2023/12/11 06:25:24;;;;;;;29.10;2.93;;;10.60;77.00;;;;;;5223274;22;20275;-80
2023/12/11 06:30:18;;;;;;;23.95;2.00;;;10.60;90.00;;;;;;5160373;22;20288;-80
2023/12/11 06:32:44;;;;;;;25.73;1.80;;;10.50;93.40;;;;;;5095618;28;20160;-81
2023/12/11 06:35:11;;;;;;;24.40;1.97;;;10.60;93.90;;;;;;5061352;28;20223;-81
2023/12/11 06:37:36;;;;;;;25.70;1.80;;;10.50;95.60;;;;;;5057010;28;20172;-80
2023/12/11 06:40:03;;;;;;;26.07;2.57;;;10.50;95.50;;;;;;5057083;28;20246;-81
2023/12/11 06:42:32;;;;;;;29.45;2.30;;;10.50;95.80;;;;;;5056912;28;20183;-81
2023/12/11 06:44:59;;;;;;;32.75;2.72;;;10.50;96.30;;;;;;5056818;28;20203;-81
2023/12/11 06:47:25;;;;;;;29.48;2.90;;;10.50;98.30;;;;;;5056763;28;20172;-81
2023/12/11 06:49:50;;;;;;;28.37;2.60;;;10.50;98.80;;;;;;5075363;28;20176;-81
2023/12/11 06:52:16;;;;;;;32.50;2.50;;;10.50;99.70;;;;;;5074694;28;20541;-81
2023/12/11 06:54:42;;;;;;;27.27;2.77;;;10.50;99.00;;;;;;5056998;28;20231;-81
2023/12/11 06:57:08;;;;;;;24.85;2.33;;;10.50;97.20;;;;;;5074736;28;20177;-81
2023/12/11 06:59:34;;;;;;;24.47;1.93;;;10.50;98.40;;;;;;5056976;28;20179;-81
2023/12/11 07:01:59;;;;;;;34.87;2.90;;;10.50;98.50;;;;;;5074707;28;20807;-81
2023/12/11 07:04:28;;;;;;;33.17;2.70;;;10.40;97.60;;;;;;5074669;28;20665;-81
2023/12/11 07:06:54;;;;;;;24.60;2.70;;;10.40;97.30;;;;;;5074625;28;20161;-81
2023/12/11 07:09:19;;;;;;;27.67;2.50;;;10.30;97.80;;;;;;5056111;28;20614;-80
2023/12/11 07:11:45;;;;;;;23.73;2.70;;;10.40;99.90;;;;;;5074734;28;20168;-81
2023/12/11 07:14:11;;;;;;;28.30;2.57;;;10.50;99.90;;;;;;5074322;28;20730;-81
2023/12/11 07:16:36;;;;;;;26.57;2.63;;;10.50;95.60;;;;;;5074546;28;20199;-81
2023/12/11 07:19:06;;;;;;;28.53;2.67;;;10.50;94.00;;;;;;5074867;28;20160;-81
2023/12/11 07:21:32;;;;;;;25.10;2.65;;;10.50;94.50;;;;;;5074764;28;20529;-80
2023/12/11 07:23:58;;;;;;;32.70;1.90;;;10.60;94.30;;;;;;5074561;28;20180;-81
2023/12/11 07:26:23;;;;;;;24.90;2.83;;;10.60;93.80;;;;;;5074386;28;20275;-82
2023/12/11 07:28:49;;;;;;;26.73;2.90;;;10.60;94.30;;;;;;5074554;28;20163;-81
2023/12/11 07:31:15;;;;;;;31.30;2.77;;;10.70;94.30;;;;;;5076959;28;20188;-81
2023/12/11 07:33:43;;;;;;;25.50;2.60;;;10.70;94.00;;;;;;5076864;28;20645;-82
2023/12/11 07:36:10;;;;;;;22.40;1.95;;;10.70;94.20;;;;;;5073834;28;20165;-81
2023/12/11 07:38:36;;;;;;;21.90;1.73;;;10.70;95.20;;;;;;5073285;28;20195;-82
2023/12/11 07:41:03;;;;;;;22.50;2.00;;;10.70;95.50;;;;;;5057667;28;20173;-81
2023/12/11 07:43:29;;;;;;;29.02;2.45;;;10.80;95.60;;;;;;5074691;28;20997;-81
2023/12/11 07:45:54;;;;;;;29.90;2.70;;;10.80;95.90;;;;;;5058287;28;20286;-82
2023/12/11 07:48:20;;;;;;;27.20;2.43;;;10.80;95.20;;;;;;5075812;28;20520;-82
2023/12/11 07:50:46;;;;;;;27.30;2.63;;;10.80;93.90;;;;;;5074912;28;20238;-81
2023/12/11 07:53:12;;;;;;;32.53;3.80;;;10.80;95.40;;;;;;5056022;28;20178;-81
2023/12/11 07:55:37;;;;;;;31.40;3.00;;;10.90;98.20;;;;;;5074099;28;20235;-81
2023/12/11 07:58:03;;;;;;;32.30;4.33;;;10.80;97.60;;;;;;5074437;28;20164;-81
2023/12/11 08:00:29;;;;;;;26.67;2.50;;;10.80;97.40;;;;;;5057442;28;20176;-82
2023/12/11 08:02:55;;;;;;;28.37;2.67;;;10.80;96.30;;;;;;5075184;28;20229;-81
2023/12/11 08:05:21;;;;;;;27.50;2.80;;;10.90;95.90;;;;;;5075977;28;20516;-82
2023/12/11 08:07:47;;;;;;;24.17;2.13;;;10.90;95.50;;;;;;5076783;28;20157;-82
2023/12/11 08:10:12;;;;;;;25.60;2.70;;;10.90;93.10;;;;;;5076616;28;20168;-81
2023/12/11 08:12:38;;;;;;;25.27;2.50;;;10.90;92.80;;;;;;5057725;28;20176;-82
2023/12/11 08:15:05;;;;;;;26.00;2.20;;;10.90;91.80;;;;;;5076263;28;20204;-81
2023/12/11 08:17:31;;;;;;;24.00;2.40;;;11.00;89.90;;;;;;5075724;28;20569;-80
2023/12/11 08:19:57;;;;;;;31.02;3.65;;;11.00;88.00;;;;;;5058053;28;20268;-81
2023/12/11 08:22:22;;;;;;;25.23;2.30;;;11.00;83.80;;;;;;5076462;28;20192;-82
2023/12/11 08:24:48;;;;;;;28.67;3.07;;;11.00;77.40;;;;;;5056883;28;20903;-81
2023/12/11 08:27:14;;;;;;;27.60;2.57;;;11.00;76.60;;;;;;5057841;28;20197;-82
2023/12/11 08:29:40;;;;;;;24.13;2.40;;;11.10;68.60;;;;;;5075590;28;20253;-82
2023/12/11 08:32:05;;;;;;;31.33;3.27;;;11.10;66.80;;;;;;5076060;28;20618;-81
2023/12/11 08:34:31;;;;;;;24.55;2.85;;;11.10;62.10;;;;;;5056835;28;20188;-82
2023/12/11 08:36:57;;;;;;;32.37;2.60;;;11.20;57.30;;;;;;5079048;28;20156;-82
2023/12/11 08:39:24;;;;;;;31.20;4.15;;;11.20;51.90;;;;;;5078597;28;20197;-81
2023/12/11 08:41:50;;;;;;;24.92;2.35;;;11.20;45.20;;;;;;5060468;28;20592;-81
2023/12/11 08:44:16;;;;;;;24.83;2.60;;;11.20;33.80;;;;;;5078330;28;20180;-81
2023/12/11 08:46:43;;;;;;;23.70;2.53;;;11.20;31.10;;;;;;5078918;28;20453;-82
2023/12/11 08:49:11;;;;;;;21.65;2.28;;;11.20;27.20;;;;;;5079506;28;20175;-82
2023/12/11 08:51:37;;;;;;;22.77;2.60;;;11.30;21.00;;;;;;5078507;28;20175;-82
2023/12/11 08:54:02;;;;;;;29.60;3.70;;;11.30;20.50;;;;;;5078521;28;20263;-83
2023/12/11 08:56:28;;;;;;;23.30;2.80;;;11.30;17.60;;;;;;5079497;28;20168;-81
2023/12/11 08:58:56;;;;;;;23.97;2.70;;;11.40;10.10;;;;;;5079925;28;20659;-82
2023/12/11 09:01:22;;;;;;;23.65;3.45;;;11.50;17.50;;;;;;5062248;28;20179;-83
2023/12/11 09:03:48;;;;;;;28.63;2.95;;;11.60;4.50;;;;;;5080328;28;20191;-81
2023/12/11 09:06:14;;;;;;;25.97;2.70;;;11.60;1.00;;;;;;5079975;28;20188;-80
2023/12/11 09:08:40;;;;;;;26.60;3.30;;;11.60;1.00;;;;;;5080885;28;20161;-80
2023/12/11 09:11:09;;;;;;;23.85;2.88;;;11.50;1.00;;;;;;5081002;28;20812;-83
2023/12/11 09:13:36;;;;;;;27.45;2.58;;;11.50;1.00;;;;;;5063242;28;20177;-82
2023/12/11 09:16:02;;;;;;;25.42;2.60;;;11.60;1.00;;;;;;5082203;28;20165;-82
2023/12/11 09:18:28;;;;;;;29.40;2.83;;;11.60;1.00;;;;;;5063451;28;20253;-82
2023/12/11 09:20:54;;;;;;;30.37;2.03;;;11.60;1.00;;;;;;5081203;28;20649;-82
2023/12/11 09:23:19;;;;;;;28.83;2.27;;;11.60;1.00;;;;;;5080754;28;20276;-81
2023/12/11 09:25:45;;;;;;;29.43;3.73;;;11.70;1.00;;;;;;5064347;28;20196;-81
2023/12/11 09:28:11;;;;;;;23.97;1.83;;;11.70;1.00;;;;;;5063082;28;20196;-82
2023/12/11 09:30:37;;;;;;;25.50;3.00;;;11.70;1.00;;;;;;5078596;28;20822;-79
2023/12/11 09:33:03;;;;;;;23.73;1.90;;;11.70;1.00;;;;;;5079439;28;20687;-82
2023/12/11 09:37:54;;;;;;;27.60;3.30;;;11.70;1.00;;;;;;5125737;22;20594;-80
2023/12/11 09:40:19;;;;;;;28.53;2.17;;;11.70;1.00;;;;;;5057124;28;20168;-82
2023/12/11 09:42:47;;;;;;;26.63;2.30;;;11.80;1.00;;;;;;5038974;28;20196;-83
2023/12/11 09:45:16;;;;;;;27.27;2.63;;;11.80;1.00;;;;;;5056650;28;20189;-82
2023/12/11 09:47:49;;;;;;;23.77;2.95;;;11.70;1.00;;;;;;5037401;28;20541;-83
2023/12/11 09:50:15;;;;;;;21.20;2.35;;;11.70;1.00;;;;;;5056605;28;20146;-82
2023/12/11 09:52:42;;;;;;;25.05;2.38;;;11.70;1.00;;;;;;5056122;28;20162;-83
2023/12/11 09:55:08;;;;;;;30.90;2.97;;;11.70;1.00;;;;;;5055876;28;20185;-83
2023/12/11 09:57:37;;;;;;;26.20;2.47;;;11.70;1.00;;;;;;5055835;28;20173;-83
2023/12/11 10:00:04;;;;;;;31.35;2.58;;;11.70;1.00;;;;;;5055802;28;20172;-82
2023/12/11 10:02:29;;;;;;;28.70;3.33;;;11.70;1.00;;;;;;5055755;28;20248;-83
2023/12/11 10:05:09;;;;;;;26.13;2.43;;;11.70;1.00;;;;;;5056086;28;20599;-84
2023/12/11 10:07:37;;;;;;;24.02;2.58;;;11.80;1.00;;;;;;5056297;28;20145;-81
2023/12/11 10:10:26;;;;;;;23.02;2.50;;;11.80;1.00;;;;;;5056159;28;20171;-84
2023/12/11 10:12:55;;;;;;;21.65;1.77;;;11.80;1.00;;;;;;5038162;28;20527;-83
2023/12/11 10:15:21;;;;;;;24.45;3.13;;;11.80;1.00;;;;;;5038676;28;20243;-83
2023/12/11 10:17:58;;;;;;;27.70;2.67;;;11.80;1.00;;;;;;5056282;28;20169;-83
2023/12/11 10:20:24;;;;;;;25.63;2.10;;;11.90;1.00;;;;;;5056197;28;20583;-83
2023/12/11 10:27:47;;;;;;;23.05;2.40;;;11.90;1.00;;;;;;5210144;22;20228;-83
2023/12/11 10:30:14;;;;;;;28.93;2.60;;;12.00;1.00;;;;;;5056665;28;20161;-83
2023/12/11 10:32:40;;;;;;;23.48;2.40;;;12.00;1.00;;;;;;5055430;28;20161;-82
2023/12/11 10:35:07;;;;;;;23.23;2.33;;;12.00;1.00;;;;;;5055755;28;20193;-83
2023/12/11 10:37:36;;;;;;;29.45;2.67;;;12.00;1.00;;;;;;5055077;28;20181;-83
2023/12/11 10:40:03;;;;;;;24.23;2.90;;;12.00;1.00;;;;;;5055981;28;20203;-82
2023/12/11 10:42:29;;;;;;;23.35;1.80;;;12.00;1.00;;;;;;5055794;28;20165;-83
2023/12/11 10:44:56;;;;;;;23.80;2.40;;;12.00;1.00;;;;;;5057531;28;20200;-81
2023/12/11 10:47:22;;;;;;;22.92;1.90;;;12.00;1.00;;;;;;5055936;28;20618;-83
2023/12/11 10:49:49;;;;;;;27.77;2.42;;;12.00;1.00;;;;;;5055629;28;20180;-83
2023/12/11 10:52:14;;;;;;;24.65;2.20;;;12.00;1.00;;;;;;5038764;28;20165;-83
2023/12/11 10:54:43;;;;;;;23.87;2.13;;;12.00;1.00;;;;;;5056311;28;20539;-83
2023/12/11 10:57:16;;;;;;;21.50;2.03;;;12.00;1.00;;;;;;5055887;28;20211;-83
2023/12/11 10:59:44;;;;;;;24.73;2.30;;;12.00;1.00;;;;;;5022040;28;20539;-83
2023/12/11 11:02:13;;;;;;;20.13;1.88;;;12.00;1.00;;;;;;5056316;28;20161;-82
2023/12/11 11:04:41;;;;;;;22.17;2.47;;;11.90;1.00;;;;;;5055849;28;20600;-83
2023/12/11 11:07:19;;;;;;;22.58;2.40;;;11.90;1.00;;;;;;5055781;28;20157;-82
2023/12/11 11:09:59;;;;;;;31.00;2.22;;;11.80;2.30;;;;;;5037231;28;20661;-84
2023/12/11 11:12:38;;;;;;;32.17;3.00;;;11.70;4.30;;;;;;5055360;28;20181;-83
2023/12/11 11:15:05;;;;;;;26.50;1.88;;;11.70;11.30;;;;;;5037301;28;20588;-83
2023/12/11 11:17:55;;;;;;;22.38;2.53;;;11.70;6.70;;;;;;5038048;28;20256;-83
2023/12/11 11:20:23;;;;;;;26.13;2.95;;;11.70;17.10;;;;;;5054693;28;20165;-82
2023/12/11 11:22:52;;;;;;;23.05;2.38;;;11.70;18.60;;;;;;5054807;28;20185;-83
2023/12/11 11:25:34;;;;;;;22.33;2.42;;;11.60;21.80;;;;;;5036280;28;20751;-83
2023/12/11 11:28:00;;;;;;;35.80;2.97;;;11.60;27.80;;;;;;5054278;28;20688;-82
2023/12/11 11:30:41;;;;;;;30.88;2.30;;;11.60;29.30;;;;;;5054861;28;20602;-83
2023/12/11 11:33:10;;;;;;;25.17;2.40;;;11.70;33.30;;;;;;5036589;28;20203;-82
2023/12/11 11:35:45;;;;;;;23.50;2.30;;;11.60;28.50;;;;;;5054966;28;20192;-83
2023/12/11 11:38:31;;;;;;;28.00;3.30;;;11.60;26.70;;;;;;5055183;28;20195;-83
2023/12/11 11:40:57;;;;;;;32.53;3.10;;;11.60;28.10;;;;;;5053690;28;20200;-83
2023/12/11 11:43:23;;;;;;;23.30;2.80;;;11.50;32.90;;;;;;5037003;28;20176;-82
2023/12/11 11:45:55;;;;;;;27.48;3.42;;;11.60;33.90;;;;;;5054812;28;20193;-83
2023/12/11 11:48:21;;;;;;;22.95;2.05;;;11.60;35.20;;;;;;5036644;28;20595;-83
2023/12/11 11:50:52;;;;;;;22.53;2.17;;;11.60;29.10;;;;;;5054889;28;20203;-83
2023/12/11 11:53:21;;;;;;;28.73;3.05;;;11.60;30.60;;;;;;5036677;28;20176;-83
2023/12/11 11:55:47;;;;;;;24.27;2.45;;;11.60;31.60;;;;;;5020434;28;20193;-83
2023/12/11 11:58:16;;;;;;;30.73;3.33;;;11.60;28.80;;;;;;5036539;28;20195;-83
2023/12/11 12:00:42;;;;;;;27.30;2.20;;;11.70;29.20;;;;;;5037089;28;20416;-82
2023/12/11 12:03:11;;;;;;;26.75;2.50;;;11.70;26.60;;;;;;5054570;28;20169;-84
2023/12/11 12:05:38;;;;;;;29.08;2.85;;;11.70;24.50;;;;;;5036221;28;20197;-83
2023/12/11 12:08:08;;;;;;;25.50;2.33;;;11.70;25.60;;;;;;5054138;28;20165;-83
2023/12/11 12:10:34;;;;;;;26.67;2.65;;;11.70;22.80;;;;;;5053407;28;20216;-83
2023/12/11 12:13:01;;;;;;;28.58;2.83;;;11.80;24.50;;;;;;5054101;28;20185;-82
2023/12/11 12:15:27;;;;;;;21.73;1.58;;;11.70;27.60;;;;;;5054026;28;20225;-84
2023/12/11 12:18:07;;;;;;;25.05;2.17;;;11.70;36.70;;;;;;5055627;28;20169;-83
2023/12/11 12:20:33;;;;;;;31.70;3.13;;;11.70;45.70;;;;;;5054684;28;20169;-84
2023/12/11 12:23:03;;;;;;;25.00;2.10;;;11.60;46.60;;;;;;5056278;28;20208;-83
2023/12/11 12:25:30;;;;;;;30.88;2.60;;;11.60;46.70;;;;;;5037233;28;20204;-83
2023/12/11 12:28:08;;;;;;;25.30;2.45;;;11.70;50.10;;;;;;5056717;28;20263;-83
2023/12/11 12:30:34;;;;;;;21.85;2.30;;;11.80;44.10;;;;;;5056385;28;20165;-82
2023/12/11 12:33:02;;;;;;;25.00;2.00;;;11.80;47.40;;;;;;5037457;28;20215;-83
2023/12/11 12:35:29;;;;;;;28.20;3.17;;;11.80;50.80;;;;;;5054905;28;20242;-83
2023/12/11 12:37:56;;;;;;;27.50;3.10;;;11.70;54.30;;;;;;5054716;28;20190;-83
2023/12/11 12:40:22;;;;;;;26.30;2.40;;;11.70;61.70;;;;;;5054595;28;20192;-81
2023/12/11 12:42:48;;;;;;;25.40;2.10;;;11.70;72.60;;;;;;5054241;28;20193;-82
2023/12/11 12:45:34;;;;;;;33.40;2.80;;;11.60;92.20;;;;;;5037235;28;20455;-81
2023/12/11 12:48:00;;;;;;;29.90;2.75;;;11.50;96.50;;;;;;5198433;22;20200;-80
2023/12/11 12:50:29;;;;;;;26.23;2.47;;;11.40;99.90;;;;;;5110689;23;20217;-81
2023/12/11 12:53:09;;;;;;;27.27;2.65;;;11.20;99.90;;;;;;5054039;28;20153;-81
2023/12/11 12:55:36;;;;;;;28.10;2.90;;;11.20;99.90;;;;;;5035145;28;20223;-82